Terminal Aerodrome Forecast
Issued by NWS

Home | Current Version | Previous Version | Graphics & Text | Print | Product List | Glossary On
Versions: 1 2 3 4 5 6 7 8 9 10 11 12 13 14
969
FTUS43 KMPX 162005 AAB
TAFRWF
TAF AMD
KRWF 162005Z 1620/1718 14014KT P6SM OVC008
     FM162200 15018G26KT P6SM OVC010
     FM170000 14018G26KT P6SM SCT010 BKN250
     FM171500 17017KT P6SM OVC010=

USA.gov is the U.S. government's official web portal to all federal, state and local government web resources and services.